Time;durP1;ratioP1;P1;durP2;ratioP2;P2;SDS_P1;SDS_P2;PMS_P1;PMS_P2;Temp;Humidity;BMP_temperature;BMP_pressure;BME280_temperature;BME280_humidity;BME280_pressure;Samples;Min_cycle;Max_cycle;Signal;HPM_P1;HPM_P2
2021/12/14 00:01:13;;;;;;;;;;;1.80;99.90;;;;;;5057894;28;20019;-79
2021/12/14 00:03:42;;;;;;;;;;;1.80;99.90;;;;;;5058805;28;19999;-79
2021/12/14 00:06:08;;;;;;;;;;;1.70;99.90;;;;;;5039324;28;19913;-78
2021/12/14 00:08:46;;;;;;;;;;;1.70;99.90;;;;;;5040647;28;19912;-76
2021/12/14 00:11:28;;;;;;;;;;;1.60;99.90;;;;;;5058041;28;19908;-78
2021/12/14 00:14:12;;;;;;;;;;;1.50;99.90;;;;;;5057830;28;19913;-76
2021/12/14 00:16:38;;;;;;;;;;;1.50;99.90;;;;;;5058464;28;19915;-77
2021/12/14 00:19:04;;;;;;;;;;;1.40;99.90;;;;;;5035945;28;19914;-76
2021/12/14 00:21:31;;;;;;;;;;;1.30;99.90;;;;;;5057686;28;20003;-76
2021/12/14 00:24:06;;;;;;;;;;;1.20;99.90;;;;;;5054654;28;19916;-79
2021/12/14 00:26:36;;;;;;;;;;;1.20;99.90;;;;;;5051616;28;20421;-77
2021/12/14 00:29:03;;;;;;;;;;;1.20;99.90;;;;;;5049992;28;19917;-77
2021/12/14 00:31:28;;;;;;;;;;;1.20;99.90;;;;;;5054286;28;19958;-78
2021/12/14 00:33:56;;;;;;;;;;;1.20;99.90;;;;;;5038812;28;19921;-79
2021/12/14 00:36:22;;;;;;;;;;;1.20;99.90;;;;;;5037565;28;19908;-78
2021/12/14 00:38:49;;;;;;;;;;;1.10;99.90;;;;;;5050314;28;20435;-81
2021/12/14 00:41:20;;;;;;;;;;;1.10;99.90;;;;;;5054396;28;19959;-77
2021/12/14 00:43:45;;;;;;;;;;;1.10;99.90;;;;;;5039278;28;19941;-77
2021/12/14 00:46:12;;;;;;;;;;;1.20;99.90;;;;;;5054644;28;20348;-79
2021/12/14 00:48:38;;;;;;;;;;;1.20;99.90;;;;;;5032229;28;19963;-78
2021/12/14 00:51:04;;;;;;;;;;;1.10;99.90;;;;;;5054604;28;19944;-76
2021/12/14 00:53:30;;;;;;;;;;;1.20;99.90;;;;;;5054996;28;19924;-78
2021/12/14 00:55:56;;;;;;;;;;;1.20;99.90;;;;;;5054368;28;19912;-79
2021/12/14 00:58:22;;;;;;;;;;;1.10;99.90;;;;;;5050116;28;19958;-78
2021/12/14 01:00:57;;;;;;;;;;;1.10;99.90;;;;;;5053507;28;19913;-76
2021/12/14 01:03:23;;;;;;;;;;;1.10;99.90;;;;;;5014633;28;19955;-76
2021/12/14 01:05:50;;;;;;;;;;;1.10;99.90;;;;;;5054053;28;19927;-79
2021/12/14 01:08:17;;;;;;;;;;;1.10;99.90;;;;;;5054781;28;19912;-76
2021/12/14 01:10:47;;;;;;;;;;;1.10;99.90;;;;;;5051585;28;20369;-79
2021/12/14 01:13:14;;;;;;;;;;;1.10;99.90;;;;;;5054191;28;19912;-80
2021/12/14 01:15:52;;;;;;;;;;;1.00;99.90;;;;;;5052803;28;19912;-79
2021/12/14 01:21:00;;;;;;;;;;;0.90;99.90;;;;;;5049354;28;19979;-76
2021/12/14 01:23:30;;;;;;;;;;;0.90;99.90;;;;;;5036102;28;20369;-76
2021/12/14 01:25:59;;;;;;;;;;;0.80;99.90;;;;;;5035944;28;19920;-77
2021/12/14 01:28:26;;;;;;;;;;;0.70;99.90;;;;;;5036260;28;20017;-78
2021/12/14 01:31:03;;;;;;;;;;;0.80;99.90;;;;;;5048978;28;19913;-81
2021/12/14 01:33:29;;;;;;;;;;;0.80;99.90;;;;;;5049155;28;19913;-78
2021/12/14 01:35:55;;;;;;;;;;;0.70;99.90;;;;;;5053174;28;20328;-80
2021/12/14 01:41:04;;;;;;;;;;;0.70;99.90;;;;;;5033519;28;19921;-76
2021/12/14 01:43:30;;;;;;;;;;;0.60;99.90;;;;;;5049581;28;19919;-78
2021/12/14 01:45:57;;;;;;;;;;;0.50;99.90;;;;;;5053443;28;19992;-79
2021/12/14 01:48:23;;;;;;;;;;;0.50;99.90;;;;;;5053534;28;21031;-78
2021/12/14 01:50:54;;;;;;;;;;;0.50;99.90;;;;;;5053254;28;19909;-76
2021/12/14 01:53:21;;;;;;;;;;;0.60;99.90;;;;;;5031517;28;19912;-76
2021/12/14 01:55:52;;;;;;;;;;;0.60;99.90;;;;;;5053098;28;19988;-79
2021/12/14 01:58:19;;;;;;;;;;;0.50;99.90;;;;;;5035457;28;19916;-77
2021/12/14 02:00:50;;;;;;;;;;;0.50;99.90;;;;;;5052683;28;20283;-77
2021/12/14 02:03:16;;;;;;;;;;;0.50;99.90;;;;;;5048196;28;20395;-78
2021/12/14 02:05:44;;;;;;;;;;;0.40;99.90;;;;;;5035517;28;19913;-81
2021/12/14 02:08:32;;;;;;;;;;;0.50;99.90;;;;;;5053193;28;20011;-80
2021/12/14 02:10:58;;;;;;;;;;;0.50;99.90;;;;;;5052994;28;19919;-80
2021/12/14 02:13:29;;;;;;;;;;;0.50;99.90;;;;;;5031104;28;19912;-80
2021/12/14 02:15:55;;;;;;;;;;;0.40;99.90;;;;;;5053198;28;19913;-78
2021/12/14 02:18:23;;;;;;;;;;;0.40;99.90;;;;;;5030791;28;19913;-80
2021/12/14 02:20:52;;;;;;;;;;;0.40;99.90;;;;;;5034859;28;20008;-79
2021/12/14 02:23:20;;;;;;;;;;;0.30;99.90;;;;;;5051524;28;19916;-78
2021/12/14 02:25:46;;;;;;;;;;;0.40;99.90;;;;;;5052653;28;19909;-79
2021/12/14 02:28:14;;;;;;;;;;;0.60;99.90;;;;;;5052849;28;19923;-80
2021/12/14 02:30:41;;;;;;;;;;;0.50;99.90;;;;;;5034261;28;19920;-80
2021/12/14 02:33:33;;;;;;;;;;;0.50;99.90;;;;;;5048074;28;19916;-78
2021/12/14 02:36:00;;;;;;;;;;;0.50;99.90;;;;;;5047258;28;19909;-77
2021/12/14 02:38:26;;;;;;;;;;;0.40;99.90;;;;;;5034929;28;19912;-77
2021/12/14 02:40:54;;;;;;;;;;;0.40;99.90;;;;;;5034726;28;20066;-78
2021/12/14 02:43:22;;;;;;;;;;;0.40;99.90;;;;;;5051963;28;19909;-77
2021/12/14 02:45:48;;;;;;;;;;;0.40;99.90;;;;;;5050709;28;19959;-78
2021/12/14 02:48:13;;;;;;;;;;;0.50;99.90;;;;;;5034913;28;19924;-80
2021/12/14 02:50:39;;;;;;;;;;;0.50;99.90;;;;;;5052341;28;20372;-78
2021/12/14 02:53:06;;;;;;;;;;;0.40;99.90;;;;;;5047855;28;20423;-78
2021/12/14 02:55:32;;;;;;;;;;;0.40;99.90;;;;;;5052428;28;20042;-79
2021/12/14 02:57:58;;;;;;;;;;;0.40;99.90;;;;;;5034555;28;20011;-80
2021/12/14 03:00:26;;;;;;;;;;;0.40;99.90;;;;;;5051734;28;20334;-78
2021/12/14 03:02:52;;;;;;;;;;;0.40;99.90;;;;;;5047877;28;20364;-77
2021/12/14 03:05:20;;;;;;;;;;;0.40;99.90;;;;;;5052317;28;19916;-79
2021/12/14 03:07:54;;;;;;;;;;;0.40;99.90;;;;;;5058320;28;19913;-79
2021/12/14 03:10:49;;;;;;;;;;;0.30;99.90;;;;;;5052071;28;19912;-78
2021/12/14 03:13:15;;;;;;;;;;;0.30;99.90;;;;;;5047838;28;19955;-78
2021/12/14 03:15:47;;;;;;;;;;;0.30;99.90;;;;;;5052221;28;19908;-80
2021/12/14 03:18:15;;;;;;;;;;;0.20;99.90;;;;;;5052324;28;20007;-80
2021/12/14 03:20:49;;;;;;;;;;;0.20;99.90;;;;;;5050979;28;19920;-79
2021/12/14 03:23:18;;;;;;;;;;;0.10;99.90;;;;;;5029804;28;20288;-77
2021/12/14 03:25:45;;;;;;;;;;;0.10;99.90;;;;;;5034244;28;19916;-77
2021/12/14 03:28:12;;;;;;;;;;;0.10;99.90;;;;;;5034433;28;19923;-77
2021/12/14 03:30:46;;;;;;;;;;;0.10;99.90;;;;;;5051634;28;19924;-77
2021/12/14 03:33:17;;;;;;;;;;;0.10;99.90;;;;;;5048906;28;20141;-79
2021/12/14 03:35:45;;;;;;;;;;;0.00;99.90;;;;;;5053743;28;19963;-80
2021/12/14 03:38:14;;;;;;;;;;;0.10;99.90;;;;;;5035133;28;20391;-77
2021/12/14 03:40:39;;;;;;;;;;;0.10;99.90;;;;;;5051824;28;19916;-81
2021/12/14 03:43:05;;;;;;;;;;;0.10;99.90;;;;;;5029148;28;19912;-80
2021/12/14 03:45:31;;;;;;;;;;;0.20;99.90;;;;;;5051915;28;20003;-82
2021/12/14 03:47:58;;;;;;;;;;;0.20;99.90;;;;;;5025731;28;19928;-80
2021/12/14 03:50:32;;;;;;;;;;;0.20;99.90;;;;;;5052043;28;19915;-79
2021/12/14 03:52:57;;;;;;;;;;;0.20;99.90;;;;;;5029867;28;19948;-78
2021/12/14 03:55:29;;;;;;;;;;;0.20;99.90;;;;;;5034665;28;19948;-76
2021/12/14 03:57:54;;;;;;;;;;;0.20;99.90;;;;;;5053812;28;19983;-79
2021/12/14 04:00:23;;;;;;;;;;;0.10;99.90;;;;;;5055160;28;20403;-82
2021/12/14 04:02:49;;;;;;;;;;;0.10;99.90;;;;;;5033506;28;19913;-79
2021/12/14 04:05:15;;;;;;;;;;;0.20;99.90;;;;;;5055482;28;19947;-79
2021/12/14 04:07:42;;;;;;;;;;;0.00;99.90;;;;;;5059323;28;19909;-78
2021/12/14 04:10:12;;;;;;;;;;;0.10;99.90;;;;;;5056776;28;19954;-82
2021/12/14 04:12:38;;;;;;;;;;;0.00;99.90;;;;;;5052379;28;19932;-80
2021/12/14 04:15:04;;;;;;;;;;;0.10;99.90;;;;;;5037773;28;20344;-80
2021/12/14 04:17:30;;;;;;;;;;;0.10;99.90;;;;;;5055631;28;19913;-80
2021/12/14 04:19:56;;;;;;;;;;;0.10;99.90;;;;;;5055776;28;19923;-78
2021/12/14 04:22:23;;;;;;;;;;;0.10;99.90;;;;;;5038182;28;19909;-78
2021/12/14 04:24:51;;;;;;;;;;;0.00;99.90;;;;;;5055141;28;19916;-77
2021/12/14 04:27:19;;;;;;;;;;;0.00;99.90;;;;;;5055646;28;19944;-78
2021/12/14 04:29:44;;;;;;;;;;;0.00;99.90;;;;;;5055223;28;19939;-79
2021/12/14 04:32:11;;;;;;;;;;;0.00;99.90;;;;;;5061546;28;20375;-78
2021/12/14 04:34:37;;;;;;;;;;;0.00;99.90;;;;;;5049862;28;19917;-82
2021/12/14 04:37:03;;;;;;;;;;;0.00;99.90;;;;;;5056354;28;20015;-82
2021/12/14 04:39:41;;;;;;;;;;;0.00;99.90;;;;;;5057200;28;19913;-80
2021/12/14 04:53:15;;;;;;;;;;;0.00;99.90;;;;;;5048292;28;20382;-78
2021/12/14 04:55:42;;;;;;;;;;;0.00;99.90;;;;;;5054546;28;19916;-77
2021/12/14 04:58:08;;;;;;;;;;;0.00;99.90;;;;;;5054590;28;20015;-77
2021/12/14 05:00:33;;;;;;;;;;;0.10;99.90;;;;;;5015984;28;20312;-80
2021/12/14 05:03:00;;;;;;;;;;;0.10;99.90;;;;;;5052234;28;19905;-77
2021/12/14 05:05:28;;;;;;;;;;;0.10;99.90;;;;;;5018750;28;19917;-79
2021/12/14 05:10:34;;;;;;;;;;;0.10;99.90;;;;;;5053874;28;19947;-80
2021/12/14 05:13:00;;;;;;;;;;;0.10;99.90;;;;;;5032087;28;19905;-77
2021/12/14 05:15:26;;;;;;;;;;;0.00;99.90;;;;;;5054141;28;19917;-79
2021/12/14 05:17:51;;;;;;;;;;;0.00;99.90;;;;;;5054282;28;19915;-78
2021/12/14 05:20:17;;;;;;;;;;;0.00;99.90;;;;;;5054114;28;19936;-79
2021/12/14 05:22:44;;;;;;;;;;;0.00;99.90;;;;;;5048968;28;19919;-78
2021/12/14 05:25:13;;;;;;;;;;;0.10;99.90;;;;;;5053945;28;19905;-80
2021/12/14 05:27:47;;;;;;;;;;;0.10;99.90;;;;;;5053969;28;20394;-81
2021/12/14 05:30:13;;;;;;;;;;;0.10;99.90;;;;;;5053425;28;19970;-80
2021/12/14 05:32:39;;;;;;;;;;;0.00;99.90;;;;;;5047179;28;20287;-80
2021/12/14 05:35:06;;;;;;;;;;;0.00;99.90;;;;;;5053680;28;20282;-80
2021/12/14 05:37:35;;;;;;;;;;;0.00;99.90;;;;;;5049750;28;19963;-78
2021/12/14 05:40:05;;;;;;;;;;;-0.10;99.90;;;;;;5053604;28;19963;-82
2021/12/14 05:45:17;;;;;;;;;;;-0.10;99.90;;;;;;5054122;28;19934;-82
2021/12/14 05:47:44;;;;;;;;;;;-0.20;99.90;;;;;;5053825;28;20411;-79
2021/12/14 05:50:13;;;;;;;;;;;-0.20;99.90;;;;;;5053410;28;19924;-79
2021/12/14 05:52:39;;;;;;;;;;;-0.10;99.90;;;;;;5047260;28;19947;-78
2021/12/14 05:55:05;;;;;;;;;;;-0.10;99.90;;;;;;5042501;28;19963;-79
2021/12/14 05:57:30;;;;;;;;;;;0.00;99.90;;;;;;5051839;28;19913;-80
2021/12/14 05:59:56;;;;;;;;;;;0.00;99.90;;;;;;5053115;28;19935;-78
2021/12/14 06:02:25;;;;;;;;;;;0.10;99.90;;;;;;5052213;28;20390;-80
2021/12/14 06:04:52;;;;;;;;;;;0.10;99.90;;;;;;5051751;28;20391;-77
2021/12/14 06:07:18;;;;;;;;;;;0.10;99.90;;;;;;5042156;28;19947;-78
2021/12/14 06:09:45;;;;;;;;;;;0.10;99.90;;;;;;5053225;28;20269;-80
2021/12/14 06:12:13;;;;;;;;;;;0.10;99.90;;;;;;5052979;28;19911;-85
2021/12/14 06:14:43;;;;;;;;;;;0.00;99.90;;;;;;5049022;28;19916;-77
2021/12/14 06:17:10;;;;;;;;;;;0.10;99.90;;;;;;5053176;28;19994;-81
2021/12/14 06:19:37;;;;;;;;;;;0.10;99.90;;;;;;5052846;28;20429;-81
2021/12/14 06:22:08;;;;;;;;;;;0.00;99.90;;;;;;5048450;28;19923;-80
2021/12/14 06:24:34;;;;;;;;;;;0.10;99.90;;;;;;5030864;28;19913;-83
2021/12/14 06:27:01;;;;;;;;;;;0.10;99.90;;;;;;5049483;28;19981;-88
2021/12/14 06:29:47;;;;;;;;;;;0.10;99.90;;;;;;5032370;28;19913;-85
2021/12/14 06:32:21;;;;;;;;;;;0.10;99.90;;;;;;5032604;28;20378;-85
2021/12/14 06:34:54;;;;;;;;;;;0.10;99.90;;;;;;5034246;28;19923;-87
2021/12/14 06:40:05;;;;;;;;;;;0.20;99.90;;;;;;5051028;28;19940;-84
2021/12/14 06:42:31;;;;;;;;;;;0.20;99.90;;;;;;5050170;28;19908;-85
2021/12/14 06:45:08;;;;;;;;;;;0.30;99.90;;;;;;5052253;28;20019;-84
2021/12/14 06:47:34;;;;;;;;;;;0.30;99.90;;;;;;5050910;28;19931;-86
2021/12/14 06:50:01;;;;;;;;;;;0.30;99.90;;;;;;5046686;28;19917;-88
2021/12/14 06:52:27;;;;;;;;;;;0.30;99.90;;;;;;5050590;28;19974;-87
2021/12/14 06:54:52;;;;;;;;;;;0.40;99.90;;;;;;5032431;28;19916;-86
2021/12/14 06:57:19;;;;;;;;;;;0.40;99.90;;;;;;5029003;28;19980;-85
2021/12/14 06:59:45;;;;;;;;;;;0.50;99.90;;;;;;5045040;28;20368;-88
2021/12/14 07:02:11;;;;;;;;;;;0.40;99.90;;;;;;5064846;28;19943;-83
2021/12/14 07:04:40;;;;;;;;;;;0.50;99.90;;;;;;5049820;28;19913;-84
2021/12/14 07:07:07;;;;;;;;;;;0.50;99.90;;;;;;5053137;28;19956;-81
2021/12/14 07:09:35;;;;;;;;;;;0.40;99.90;;;;;;5031097;28;19912;-85
2021/12/14 07:12:06;;;;;;;;;;;0.40;99.90;;;;;;5052640;28;19996;-84
2021/12/14 07:14:32;;;;;;;;;;;0.40;99.90;;;;;;5050210;28;19917;-85
2021/12/14 07:17:01;;;;;;;;;;;0.50;99.90;;;;;;5050860;28;19954;-85
2021/12/14 07:19:47;;;;;;;;;;;0.40;99.90;;;;;;5052479;28;19908;-85
2021/12/14 07:22:31;;;;;;;;;;;0.50;99.90;;;;;;5048699;28;19921;-82
2021/12/14 07:24:57;;;;;;;;;;;0.30;99.90;;;;;;5049991;28;19916;-84
2021/12/14 07:27:27;;;;;;;;;;;0.40;99.90;;;;;;5047033;28;19912;-85
2021/12/14 07:29:53;;;;;;;;;;;0.40;99.90;;;;;;5047223;28;20017;-81
2021/12/14 07:32:39;;;;;;;;;;;0.50;99.90;;;;;;5035581;28;19956;-84
2021/12/14 07:35:16;;;;;;;;;;;0.50;99.90;;;;;;5048578;28;19909;-85
2021/12/14 07:37:42;;;;;;;;;;;0.50;99.90;;;;;;5043808;28;19984;-84
2021/12/14 07:40:09;;;;;;;;;;;0.40;99.90;;;;;;5033029;28;20230;-84
2021/12/14 07:42:34;;;;;;;;;;;0.50;99.90;;;;;;5047808;28;19909;-86
2021/12/14 07:45:00;;;;;;;;;;;0.50;99.90;;;;;;5037007;28;19917;-88
2021/12/14 07:47:25;;;;;;;;;;;0.50;99.90;;;;;;5052493;28;19935;-83
2021/12/14 07:49:55;;;;;;;;;;;0.60;99.90;;;;;;5049401;28;19942;-82
2021/12/14 07:52:23;;;;;;;;;;;0.60;99.90;;;;;;5019500;28;19913;-81
2021/12/14 07:54:50;;;;;;;;;;;0.60;99.90;;;;;;5054061;28;19913;-80
2021/12/14 07:57:15;;;;;;;;;;;0.60;99.90;;;;;;5035073;28;19913;-79
2021/12/14 07:59:45;;;;;;;;;;;0.70;99.90;;;;;;5049781;28;19909;-82
2021/12/14 08:02:11;;;;;;;;;;;0.70;99.90;;;;;;5039352;28;19913;-85
2021/12/14 08:04:37;;;;;;;;;;;0.60;99.90;;;;;;5053742;28;19909;-82
2021/12/14 08:07:04;;;;;;;;;;;0.60;99.90;;;;;;5055719;28;19919;-85
2021/12/14 08:09:48;;;;;;;;;;;0.60;99.90;;;;;;5032568;28;19923;-82
2021/12/14 08:12:32;;;;;;;;;;;0.70;99.90;;;;;;5053809;28;20379;-81
2021/12/14 08:14:59;;;;;;;;;;;0.70;99.90;;;;;;5054575;28;19916;-84
2021/12/14 08:17:25;;;;;;;;;;;0.70;99.90;;;;;;5052950;28;19913;-85
2021/12/14 08:19:51;;;;;;;;;;;0.70;99.90;;;;;;5057740;28;20332;-82
2021/12/14 08:22:31;;;;;;;;;;;0.80;99.90;;;;;;5048754;28;19944;-86
2021/12/14 08:24:57;;;;;;;;;;;0.80;99.90;;;;;;5042198;28;20356;-85
2021/12/14 08:27:24;;;;;;;;;;;0.80;99.90;;;;;;5054140;28;19916;-86
2021/12/14 08:29:51;;;;;;;;;;;0.80;99.90;;;;;;5053080;28;19916;-87
2021/12/14 08:32:20;;;;;;;;;;;0.90;99.90;;;;;;5053756;28;19986;-87
2021/12/14 08:34:46;;;;;;;;;;;0.90;99.90;;;;;;5036628;28;19913;-84
2021/12/14 08:37:17;;;;;;;;;;;1.00;99.90;;;;;;5040116;28;19920;-83
2021/12/14 08:39:51;;;;;;;;;;;1.00;99.90;;;;;;5037285;28;19917;-85
2021/12/14 08:42:31;;;;;;;;;;;0.90;99.90;;;;;;5056334;28;19913;-85
2021/12/14 08:44:58;;;;;;;;;;;1.00;99.90;;;;;;5036846;28;19912;-84
2021/12/14 08:47:24;;;;;;;;;;;0.90;99.90;;;;;;5049044;28;19913;-86
2021/12/14 08:49:49;;;;;;;;;;;0.90;99.90;;;;;;5054077;28;19932;-85
2021/12/14 08:52:15;;;;;;;;;;;1.00;99.90;;;;;;5052511;28;19913;-83
2021/12/14 08:54:40;;;;;;;;;;;1.10;99.90;;;;;;5054142;28;19913;-86
2021/12/14 08:57:14;;;;;;;;;;;1.10;99.90;;;;;;5051985;28;19923;-82
2021/12/14 08:59:42;;;;;;;;;;;1.20;99.90;;;;;;5054057;28;20402;-85
2021/12/14 09:02:11;;;;;;;;;;;1.20;99.90;;;;;;5049110;28;20003;-81
2021/12/14 09:04:39;;;;;;;;;;;1.30;99.90;;;;;;5030451;28;20007;-86
2021/12/14 09:07:08;;;;;;;;;;;1.40;99.90;;;;;;5026625;28;19959;-85
2021/12/14 09:09:33;;;;;;;;;;;1.60;99.90;;;;;;5053182;28;20014;-85
2021/12/14 09:12:03;;;;;;;;;;;1.50;99.90;;;;;;5041205;28;19996;-86
2021/12/14 09:14:29;;;;;;;;;;;1.50;99.90;;;;;;5035509;28;19954;-87
2021/12/14 09:16:57;;;;;;;;;;;1.80;99.90;;;;;;5053304;28;19912;-83
2021/12/14 09:19:25;;;;;;;;;;;1.90;99.90;;;;;;5053756;28;19935;-84
2021/12/14 09:21:52;;;;;;;;;;;1.70;99.90;;;;;;5052733;28;19958;-86
2021/12/14 09:24:21;;;;;;;;;;;1.60;99.90;;;;;;5048977;28;19909;-87
2021/12/14 09:26:48;;;;;;;;;;;1.60;99.90;;;;;;5035128;28;19935;-85
2021/12/14 09:29:17;;;;;;;;;;;1.70;99.90;;;;;;5035429;28;19920;-85
2021/12/14 09:31:48;;;;;;;;;;;1.70;99.90;;;;;;5045290;28;19913;-86
2021/12/14 09:34:15;;;;;;;;;;;1.70;99.90;;;;;;5051393;28;19912;-87
2021/12/14 09:36:41;;;;;;;;;;;1.70;99.90;;;;;;5035196;28;19917;-86
2021/12/14 09:39:09;;;;;;;;;;;1.80;99.90;;;;;;5035116;28;19961;-85
2021/12/14 09:41:36;;;;;;;;;;;1.80;99.90;;;;;;5047338;28;19912;-84
2021/12/14 09:44:04;;;;;;;;;;;1.80;99.90;;;;;;5052450;28;19968;-86
2021/12/14 09:46:31;;;;;;;;;;;2.10;99.90;;;;;;5033635;28;19999;-85
2021/12/14 09:48:58;;;;;;;;;;;2.00;99.90;;;;;;5048789;28;19920;-86
2021/12/14 09:51:30;;;;;;;;;;;2.00;99.90;;;;;;5052556;28;19965;-84
2021/12/14 09:53:56;;;;;;;;;;;2.10;99.90;;;;;;5035338;28;19920;-86
2021/12/14 09:56:24;;;;;;;;;;;2.30;99.90;;;;;;5036652;28;19913;-85
2021/12/14 09:58:51;;;;;;;;;;;2.30;99.90;;;;;;5052486;28;20145;-85
2021/12/14 10:01:26;;;;;;;;;;;2.20;99.90;;;;;;5016911;28;19920;-80
2021/12/14 10:03:53;;;;;;;;;;;2.20;99.90;;;;;;5032002;28;19908;-78
2021/12/14 10:06:21;;;;;;;;;;;2.30;99.90;;;;;;5049686;28;19909;-86
2021/12/14 10:08:51;;;;;;;;;;;2.30;99.90;;;;;;5051619;28;20314;-85
2021/12/14 10:11:35;;;;;;;;;;;2.20;99.90;;;;;;5049543;28;19909;-86
2021/12/14 10:14:01;;;;;;;;;;;2.20;99.90;;;;;;5053102;28;19986;-84
2021/12/14 10:16:26;;;;;;;;;;;2.10;99.90;;;;;;5047651;28;19913;-85
2021/12/14 10:18:57;;;;;;;;;;;2.20;99.90;;;;;;5029544;28;19920;-83
2021/12/14 10:21:29;;;;;;;;;;;2.30;99.90;;;;;;5034739;28;19935;-84
2021/12/14 10:23:55;;;;;;;;;;;2.10;99.90;;;;;;5052354;28;19959;-86
2021/12/14 10:26:21;;;;;;;;;;;2.00;99.90;;;;;;5033981;28;19909;-89
2021/12/14 10:28:49;;;;;;;;;;;2.20;99.90;;;;;;5033824;28;19964;-86
2021/12/14 10:31:20;;;;;;;;;;;2.20;99.90;;;;;;5065664;28;19924;-83
2021/12/14 10:33:46;;;;;;;;;;;2.30;99.90;;;;;;5066732;28;19924;-86
2021/12/14 10:36:24;;;;;;;;;;;2.20;99.90;;;;;;5058112;28;19913;-86
2021/12/14 10:39:23;;;;;;;;;;;2.00;99.90;;;;;;5051539;28;19915;-84
2021/12/14 10:44:26;;;;;;;;;;;2.40;99.90;;;;;;5052747;28;19918;-85
2021/12/14 10:46:52;;;;;;;;;;;2.30;99.90;;;;;;5034200;28;19912;-85
2021/12/14 10:49:19;;;;;;;;;;;2.40;99.90;;;;;;5028220;28;20395;-86
2021/12/14 10:51:47;;;;;;;;;;;2.30;99.90;;;;;;5052329;28;19913;-83
2021/12/14 10:54:13;;;;;;;;;;;2.30;99.90;;;;;;5050783;28;19923;-84
2021/12/14 10:56:41;;;;;;;;;;;2.40;99.90;;;;;;5033437;28;19920;-87
2021/12/14 10:59:08;;;;;;;;;;;2.50;99.90;;;;;;5033185;28;19916;-84
2021/12/14 11:01:35;;;;;;;;;;;2.60;99.90;;;;;;5038527;28;20695;-84
2021/12/14 11:04:03;;;;;;;;;;;2.60;99.90;;;;;;5037593;28;19913;-84
2021/12/14 11:06:31;;;;;;;;;;;2.90;99.90;;;;;;5033660;28;19928;-86
2021/12/14 11:11:37;;;;;;;;;;;2.90;99.90;;;;;;5052147;28;19912;-85
2021/12/14 11:14:10;;;;;;;;;;;2.90;99.90;;;;;;5049899;28;19956;-84
2021/12/14 11:19:38;;;;;;;;;;;3.00;99.90;;;;;;5046796;28;19920;-83
2021/12/14 11:22:23;;;;;;;;;;;2.90;99.90;;;;;;5050765;28;19916;-84
2021/12/14 11:24:52;;;;;;;;;;;2.80;99.90;;;;;;5050395;28;19919;-83
2021/12/14 11:27:38;;;;;;;;;;;2.80;99.90;;;;;;5050242;28;19986;-83
2021/12/14 11:30:36;;;;;;;;;;;2.80;99.90;;;;;;5048300;28;19921;-91
2021/12/14 11:33:05;;;;;;;;;;;2.70;99.90;;;;;;4991289;28;20265;-83
2021/12/14 11:35:31;;;;;;;;;;;2.80;99.90;;;;;;5049664;28;19955;-85
2021/12/14 11:37:58;;;;;;;;;;;2.80;99.90;;;;;;5043669;28;19920;-82
2021/12/14 11:40:25;;;;;;;;;;;2.80;99.90;;;;;;5047994;28;19988;-86
2021/12/14 11:42:52;;;;;;;;;;;2.70;99.90;;;;;;5049694;28;20019;-84
2021/12/14 11:45:20;;;;;;;;;;;2.80;99.90;;;;;;5047732;28;20338;-85
2021/12/14 11:47:50;;;;;;;;;;;2.70;99.90;;;;;;5051289;28;19982;-83
2021/12/14 11:50:23;;;;;;;;;;;2.70;99.90;;;;;;5050641;28;19931;-84
2021/12/14 11:52:56;;;;;;;;;;;2.80;99.90;;;;;;5046469;28;19909;-81
2021/12/14 11:55:28;;;;;;;;;;;2.80;99.90;;;;;;5049225;28;20301;-85
2021/12/14 11:58:20;;;;;;;;;;;2.80;99.90;;;;;;5033421;28;19913;-84
2021/12/14 12:01:06;;;;;;;;;;;2.80;99.90;;;;;;5027543;28;19969;-81
2021/12/14 12:03:31;;;;;;;;;;;2.80;99.90;;;;;;5050155;28;19912;-80
2021/12/14 12:06:09;;;;;;;;;;;2.90;99.90;;;;;;5051190;28;19909;-81
2021/12/14 12:11:29;;;;;;;;;;;3.00;99.90;;;;;;5048661;28;19958;-82
2021/12/14 12:13:55;;;;;;;;;;;2.80;99.90;;;;;;5051182;28;19912;-83
2021/12/14 12:16:22;;;;;;;;;;;2.90;99.90;;;;;;5050445;28;19915;-83
2021/12/14 12:19:07;;;;;;;;;;;2.90;99.90;;;;;;5045664;28;19920;-84
2021/12/14 12:21:34;;;;;;;;;;;2.80;99.90;;;;;;5035731;28;19921;-82
2021/12/14 12:24:01;;;;;;;;;;;2.90;99.90;;;;;;5035295;28;19975;-88
2021/12/14 12:26:29;;;;;;;;;;;3.00;99.90;;;;;;5053225;28;19916;-84
2021/12/14 12:29:02;;;;;;;;;;;2.80;99.90;;;;;;5054638;28;19932;-81
2021/12/14 12:31:28;;;;;;;;;;;2.90;99.90;;;;;;5054154;28;19913;-83
2021/12/14 12:33:55;;;;;;;;;;;2.90;99.90;;;;;;5035801;28;19928;-83
2021/12/14 12:36:29;;;;;;;;;;;2.90;99.90;;;;;;5048343;28;19909;-80
2021/12/14 12:39:00;;;;;;;;;;;2.80;99.90;;;;;;5053618;28;19912;-80
2021/12/14 12:41:28;;;;;;;;;;;2.90;99.90;;;;;;5056933;28;19961;-82
2021/12/14 12:44:20;;;;;;;;;;;2.90;99.90;;;;;;5041633;28;19962;-85
2021/12/14 12:46:47;;;;;;;;;;;3.00;99.90;;;;;;5043830;28;19909;-83
2021/12/14 12:49:15;;;;;;;;;;;3.00;99.90;;;;;;5054923;28;20007;-82
2021/12/14 12:51:44;;;;;;;;;;;2.90;99.90;;;;;;5032240;28;19913;-82
2021/12/14 12:54:15;;;;;;;;;;;3.00;99.90;;;;;;5034622;28;20570;-83
2021/12/14 12:56:42;;;;;;;;;;;3.00;99.90;;;;;;5036163;28;19932;-82
2021/12/14 12:59:09;;;;;;;;;;;3.10;99.90;;;;;;5054375;28;19909;-84
2021/12/14 13:01:35;;;;;;;;;;;3.20;99.90;;;;;;5040173;28;20405;-85
2021/12/14 13:04:01;;;;;;;;;;;3.00;99.90;;;;;;5047118;28;19999;-82
2021/12/14 13:06:26;;;;;;;;;;;2.90;99.90;;;;;;5033780;28;19913;-86
2021/12/14 13:08:57;;;;;;;;;;;3.00;99.90;;;;;;5056122;28;20031;-83
2021/12/14 13:11:36;;;;;;;;;;;2.90;99.90;;;;;;5053860;28;19916;-83
2021/12/14 13:14:10;;;;;;;;;;;2.80;99.90;;;;;;5049602;28;19915;-83
2021/12/14 13:16:43;;;;;;;;;;;2.80;99.90;;;;;;5036185;28;19923;-84
2021/12/14 13:19:17;;;;;;;;;;;2.90;99.90;;;;;;5035264;28;20365;-84
2021/12/14 13:21:42;;;;;;;;;;;2.90;99.90;;;;;;5049872;28;20050;-82
2021/12/14 13:24:08;;;;;;;;;;;3.00;99.90;;;;;;5051138;28;20394;-82
2021/12/14 13:26:39;;;;;;;;;;;3.00;99.90;;;;;;5037906;28;19912;-84
2021/12/14 13:29:25;;;;;;;;;;;3.20;99.90;;;;;;5053470;28;19917;-83
2021/12/14 13:31:53;;;;;;;;;;;3.20;99.90;;;;;;5049225;28;19919;-86
2021/12/14 13:34:33;;;;;;;;;;;3.00;99.90;;;;;;5035737;28;19912;-85
2021/12/14 13:37:00;;;;;;;;;;;3.00;99.90;;;;;;5048374;28;19913;-86
2021/12/14 13:39:25;;;;;;;;;;;2.80;99.90;;;;;;5023480;28;19912;-87
2021/12/14 13:42:10;;;;;;;;;;;2.80;99.90;;;;;;5052923;28;19915;-85
2021/12/14 13:44:39;;;;;;;;;;;2.70;99.90;;;;;;5054563;28;19917;-85
2021/12/14 13:47:07;;;;;;;;;;;2.70;99.90;;;;;;5038980;28;19961;-84
2021/12/14 13:49:33;;;;;;;;;;;2.70;99.90;;;;;;5051027;28;19921;-82
2021/12/14 13:51:58;;;;;;;;;;;2.70;99.90;;;;;;5052141;28;20399;-86
2021/12/14 13:54:26;;;;;;;;;;;2.60;99.90;;;;;;5031894;28;20001;-85
2021/12/14 13:56:52;;;;;;;;;;;2.70;99.90;;;;;;5034952;28;19913;-84
2021/12/14 13:59:18;;;;;;;;;;;2.70;99.90;;;;;;5052055;28;20422;-84
2021/12/14 14:01:48;;;;;;;;;;;2.60;99.90;;;;;;5051361;28;20015;-84
2021/12/14 14:04:17;;;;;;;;;;;2.60;99.90;;;;;;5035205;28;19916;-83
2021/12/14 14:06:42;;;;;;;;;;;2.50;99.90;;;;;;5063338;28;19917;-83
2021/12/14 14:09:27;;;;;;;;;;;2.50;99.90;;;;;;5052397;28;19912;-83
2021/12/14 14:11:55;;;;;;;;;;;2.50;99.90;;;;;;5033079;28;19921;-86
2021/12/14 14:14:23;;;;;;;;;;;2.40;99.90;;;;;;5052818;28;19920;-86
2021/12/14 14:16:50;;;;;;;;;;;2.40;99.90;;;;;;5039626;28;20375;-83
2021/12/14 14:19:17;;;;;;;;;;;2.30;99.90;;;;;;5037013;28;19944;-86
2021/12/14 14:21:50;;;;;;;;;;;2.30;99.90;;;;;;5042058;28;19909;-86
2021/12/14 14:24:20;;;;;;;;;;;2.30;99.90;;;;;;5039573;28;19912;-82
2021/12/14 14:26:46;;;;;;;;;;;2.30;99.90;;;;;;5052645;28;19908;-86
2021/12/14 14:29:13;;;;;;;;;;;2.20;99.90;;;;;;5034335;28;20376;-83
2021/12/14 14:31:48;;;;;;;;;;;2.20;99.90;;;;;;5046744;28;19913;-86
2021/12/14 14:34:19;;;;;;;;;;;2.20;99.90;;;;;;5047047;28;19916;-85
2021/12/14 14:36:45;;;;;;;;;;;2.20;99.90;;;;;;5048519;28;19908;-84
2021/12/14 14:39:18;;;;;;;;;;;2.20;99.90;;;;;;5052367;28;19912;-87
2021/12/14 14:41:49;;;;;;;;;;;2.10;99.90;;;;;;5031790;28;19921;-88
2021/12/14 14:44:25;;;;;;;;;;;2.10;99.90;;;;;;5035860;28;20011;-89
2021/12/14 14:46:54;;;;;;;;;;;2.00;99.90;;;;;;5034048;28;19913;-85
2021/12/14 14:49:39;;;;;;;;;;;2.10;99.90;;;;;;5051859;28;19917;-82
2021/12/14 14:52:27;;;;;;;;;;;1.90;99.90;;;;;;5033046;28;19908;-80
2021/12/14 14:55:01;;;;;;;;;;;1.90;99.90;;;;;;5028883;28;19919;-88
2021/12/14 14:57:26;;;;;;;;;;;1.90;99.90;;;;;;5050803;28;20401;-85
2021/12/14 14:59:55;;;;;;;;;;;1.90;99.90;;;;;;5052035;28;19935;-87
2021/12/14 15:02:38;;;;;;;;;;;2.00;99.90;;;;;;5051227;28;19952;-85
2021/12/14 15:05:05;;;;;;;;;;;1.90;99.90;;;;;;5047856;28;20413;-85
2021/12/14 15:07:50;;;;;;;;;;;1.80;99.90;;;;;;5053155;28;19915;-86
2021/12/14 15:10:16;;;;;;;;;;;1.80;99.90;;;;;;5045714;28;19963;-90
2021/12/14 15:12:42;;;;;;;;;;;1.80;99.90;;;;;;5014397;28;19923;-83
2021/12/14 15:15:17;;;;;;;;;;;1.70;99.90;;;;;;5033966;28;19956;-89
2021/12/14 15:17:47;;;;;;;;;;;1.70;99.90;;;;;;5031471;28;19909;-85